Juergen K — PBKV — position and weather

sailwx.info

Track history (hours):
 
Tides and Currents Weather Stations Pressure Air Temp Water Temp Dewpoint Dewpoint Depression Visibility Wind Speed Wind Dir Waves Ship Positions

Juergen K

Last reported at 2014-Aug-22 20:32 UTC. Time now 2014-Aug-23 15:20 UTC.
Position N 37°13' W 000°29'.

Length 89 m; draft 5.6 m.

Type: Cargo ship. MMSI: 244329000.

Date/timePositionNaut miles runAvg speedWind from/ knotsBaromVisibWave heightAir tempDewpointWater temp
2014-Aug-22 20:32N 37°13' W 000°29'9 9.6
2014-Aug-22 19:33N 37°18' W 000°19'10 9.6
2014-Aug-22 18:33N 37°23' W 000°08'11 9.8
2014-Aug-22 17:28N 37°28' E 000°03'9 9.7
2014-Aug-22 16:33N 37°33' E 000°13'152 9.4
2014-Aug-22 00:24N 38°43' E 003°05'8 9.5
2014-Aug-21 23:33N 38°46' E 003°14'9 9.5
2014-Aug-21 22:33N 38°50' E 003°25'11 9.4
2014-Aug-21 21:26N 38°55' E 003°37'9 9.5
2014-Aug-21 20:31N 38°59' E 003°47'239 4.7
2014-Aug-19 17:12N 40°50' E 008°23'  
2014-Aug-17 11:20N 39°06' E 003°43'810.6
2014-Aug-17 10:33N 39°02' E 003°34'1110.6
2014-Aug-17 09:33N 38°57' E 003°22'1111.0
2014-Aug-17 08:33N 38°51' E 003°10'1211.2
2014-Aug-17 07:32N 38°45' E 002°57'1111.2
2014-Aug-17 06:32N 38°40' E 002°45'41610.2
2014-Aug-15 13:33N 35°56' W 005°16'3 2.7
2014-Aug-15 12:33N 35°54' W 005°18'0 0.0
2014-Aug-15 11:33N 35°54' W 005°18'1 0.9
2014-Aug-15 10:34N 35°54' W 005°19'1 0.9
2014-Aug-15 09:34N 35°55' W 005°20'0 0.5
2014-Aug-15 08:33N 35°55' W 005°19'0 0.4
2014-Aug-15 07:33N 35°55' W 005°19'0 0.2
2014-Aug-15 06:34N 35°55' W 005°19'0 0.3
2014-Aug-15 05:34N 35°55' W 005°19'0 0.1
2014-Aug-15 04:33N 35°55' W 005°19'1 1.1
2014-Aug-15 03:34N 35°56' W 005°20'0 0.1
2014-Aug-15 02:33N 35°56' W 005°20'1 0.7
2014-Aug-15 01:33N 35°55' W 005°19'  
Track history (hours):
 
Tides and Currents Weather Stations Pressure Air Temp Water Temp Dewpoint Dewpoint Depression Visibility Wind Speed Wind Dir Waves Ship Positions

Juergen K

Last reported at 2014-Aug-22 20:32 UTC. Time now 2014-Aug-23 15:20 UTC.
Position N 37°13' W 000°29'.

Length 89 m; draft 5.6 m.

Type: Cargo ship. MMSI: 244329000.

Date/timePositionNaut miles runAvg speedWind from/ knotsBaromVisibWave heightAir tempDewpointWater temp
2014-Aug-22 20:32N 37°13' W 000°29'9 9.6
2014-Aug-22 19:33N 37°18' W 000°19'10 9.6
2014-Aug-22 18:33N 37°23' W 000°08'11 9.8
2014-Aug-22 17:28N 37°28' E 000°03'9 9.7
2014-Aug-22 16:33N 37°33' E 000°13'152 9.4
2014-Aug-22 00:24N 38°43' E 003°05'8 9.5
2014-Aug-21 23:33N 38°46' E 003°14'9 9.5
2014-Aug-21 22:33N 38°50' E 003°25'11 9.4
2014-Aug-21 21:26N 38°55' E 003°37'9 9.5
2014-Aug-21 20:31N 38°59' E 003°47'239 4.7
2014-Aug-19 17:12N 40°50' E 008°23'  
2014-Aug-17 11:20N 39°06' E 003°43'810.6
2014-Aug-17 10:33N 39°02' E 003°34'1110.6
2014-Aug-17 09:33N 38°57' E 003°22'1111.0
2014-Aug-17 08:33N 38°51' E 003°10'1211.2
2014-Aug-17 07:32N 38°45' E 002°57'1111.2
2014-Aug-17 06:32N 38°40' E 002°45'41610.2
2014-Aug-15 13:33N 35°56' W 005°16'3 2.7
2014-Aug-15 12:33N 35°54' W 005°18'0 0.0
2014-Aug-15 11:33N 35°54' W 005°18'1 0.9
2014-Aug-15 10:34N 35°54' W 005°19'1 0.9
2014-Aug-15 09:34N 35°55' W 005°20'0 0.5
2014-Aug-15 08:33N 35°55' W 005°19'0 0.4
2014-Aug-15 07:33N 35°55' W 005°19'0 0.2
2014-Aug-15 06:34N 35°55' W 005°19'0 0.3
2014-Aug-15 05:34N 35°55' W 005°19'0 0.1
2014-Aug-15 04:33N 35°55' W 005°19'1 1.1
2014-Aug-15 03:34N 35°56' W 005°20'0 0.1
2014-Aug-15 02:33N 35°56' W 005°20'1 0.7
2014-Aug-15 01:33N 35°55' W 005°19'  

Dump ship's entire track history